Time;durP1;ratioP1;P1;durP2;ratioP2;P2;SDS_P1;SDS_P2;PMS_P1;PMS_P2;Temp;Humidity;BMP_temperature;BMP_pressure;BME280_temperature;BME280_humidity;BME280_pressure;Samples;Min_cycle;Max_cycle;Signal;HPM_P1;HPM_P2
2021/12/08 00:01:23;;;;;;;15.13;7.95;;;3.20;85.40;;;;;;5071507;28;20020;-44
2021/12/08 00:03:51;;;;;;;13.25;8.30;;;3.20;84.80;;;;;;5071498;28;20061;-45
2021/12/08 00:06:19;;;;;;;14.50;8.60;;;3.30;84.90;;;;;;5070008;28;20028;-45
2021/12/08 00:09:01;;;;;;;15.75;7.95;;;3.30;84.80;;;;;;5071783;28;20071;-43
2021/12/08 00:14:15;;;;;;;19.70;9.25;;;3.30;84.50;;;;;;5063646;28;20048;-45
2021/12/08 00:16:42;;;;;;;12.82;6.63;;;3.30;84.60;;;;;;5071255;28;20028;-44
2021/12/08 00:19:09;;;;;;;12.70;8.10;;;3.30;84.60;;;;;;5065483;28;20362;-44
2021/12/08 00:21:36;;;;;;;11.75;7.10;;;3.30;84.70;;;;;;5070373;28;20123;-45
2021/12/08 00:24:05;;;;;;;13.35;6.82;;;3.30;84.40;;;;;;5071004;28;20039;-44
2021/12/08 00:26:32;;;;;;;18.63;7.75;;;3.30;84.20;;;;;;5070872;28;20123;-45
2021/12/08 00:28:59;;;;;;;11.32;6.93;;;3.30;84.20;;;;;;5059935;28;20105;-44
2021/12/08 00:31:24;;;;;;;13.52;6.20;;;3.30;84.20;;;;;;5053863;28;20051;-46
2021/12/08 00:33:51;;;;;;;14.93;6.90;;;3.30;84.10;;;;;;5071204;28;20032;-44
2021/12/08 00:36:25;;;;;;;16.67;7.55;;;3.30;84.00;;;;;;5070859;28;20024;-44
2021/12/08 00:38:52;;;;;;;13.20;6.40;;;3.30;84.10;;;;;;5070958;28;20044;-45
2021/12/08 00:41:18;;;;;;;13.77;6.75;;;3.30;84.20;;;;;;5071193;28;20114;-45
2021/12/08 00:43:45;;;;;;;13.38;6.65;;;3.30;84.10;;;;;;5070590;28;20075;-46
2021/12/08 00:46:12;;;;;;;14.90;6.03;;;3.30;84.30;;;;;;5036611;28;20460;-44
2021/12/08 00:48:47;;;;;;;13.32;7.00;;;3.30;84.20;;;;;;5070760;28;20142;-45
2021/12/08 00:51:15;;;;;;;12.93;6.28;;;3.30;84.00;;;;;;5070896;28;20109;-45
2021/12/08 00:53:42;;;;;;;10.82;5.75;;;3.30;84.10;;;;;;5070357;28;20029;-47
2021/12/08 00:56:08;;;;;;;12.55;6.90;;;3.30;83.70;;;;;;5070397;28;20020;-44
2021/12/08 00:58:36;;;;;;;11.05;4.88;;;3.40;83.40;;;;;;5071033;28;20063;-47
2021/12/08 01:01:04;;;;;;;10.43;4.80;;;3.40;83.30;;;;;;5070057;28;20027;-45
2021/12/08 01:03:31;;;;;;;10.02;5.10;;;3.40;83.20;;;;;;5061659;28;20033;-45
2021/12/08 01:05:58;;;;;;;10.75;5.30;;;3.40;82.90;;;;;;5070271;28;20355;-49
2021/12/08 01:08:26;;;;;;;10.45;5.13;;;3.40;83.10;;;;;;5070112;28;20063;-44
2021/12/08 01:10:56;;;;;;;9.63;4.70;;;3.40;82.90;;;;;;5075365;28;20067;-44
2021/12/08 01:13:24;;;;;;;12.27;7.55;;;3.50;82.40;;;;;;5070108;28;20445;-44
2021/12/08 01:15:52;;;;;;;10.00;4.68;;;3.50;82.60;;;;;;5067669;28;20361;-45
2021/12/08 01:18:23;;;;;;;10.02;4.35;;;3.50;82.70;;;;;;5069880;28;20027;-45
2021/12/08 01:20:56;;;;;;;13.05;5.18;;;3.50;82.60;;;;;;5069438;28;20020;-45
2021/12/08 01:23:24;;;;;;;8.75;5.03;;;3.50;82.60;;;;;;5070157;28;20032;-46
2021/12/08 01:25:51;;;;;;;12.15;5.25;;;3.50;82.30;;;;;;5070131;28;20089;-48
2021/12/08 01:28:20;;;;;;;8.65;5.05;;;3.50;82.30;;;;;;5069846;28;20067;-45
2021/12/08 01:30:49;;;;;;;7.93;5.18;;;3.50;82.50;;;;;;5069760;28;20072;-48
2021/12/08 01:33:20;;;;;;;11.67;5.80;;;3.50;82.60;;;;;;5053754;28;20028;-46
2021/12/08 01:35:47;;;;;;;11.88;5.47;;;3.50;81.90;;;;;;5069677;28;20029;-44
2021/12/08 01:38:14;;;;;;;10.38;5.40;;;3.50;82.30;;;;;;5052932;28;20353;-45
2021/12/08 01:40:41;;;;;;;10.23;5.05;;;3.50;82.80;;;;;;5069713;28;20622;-57
2021/12/08 01:43:23;;;;;;;16.85;6.00;;;3.40;83.90;;;;;;5063086;28;20025;-62
2021/12/08 01:45:59;;;;;;;11.27;7.07;;;3.20;84.60;;;;;;5070014;28;20060;-61
2021/12/08 01:48:32;;;;;;;11.70;5.85;;;3.00;85.50;;;;;;5069463;28;20031;-60
2021/12/08 01:51:04;;;;;;;12.90;6.38;;;2.90;86.40;;;;;;5052318;28;20442;-61
2021/12/08 01:53:31;;;;;;;10.70;5.95;;;2.90;86.70;;;;;;5069593;28;20020;-61
2021/12/08 01:55:59;;;;;;;10.55;6.70;;;2.80;87.00;;;;;;5063360;28;20315;-57
2021/12/08 01:58:28;;;;;;;11.00;6.60;;;2.70;87.50;;;;;;5051982;28;20481;-59
2021/12/08 02:01:02;;;;;;;13.38;5.57;;;2.70;87.70;;;;;;5069502;28;20040;-61
2021/12/08 02:03:30;;;;;;;12.50;7.13;;;2.70;87.80;;;;;;5069543;28;20036;-61
2021/12/08 02:05:58;;;;;;;16.80;7.68;;;2.60;87.70;;;;;;5069632;28;20024;-61
2021/12/08 02:08:25;;;;;;;15.93;7.05;;;2.50;88.00;;;;;;5069290;28;20035;-58
2021/12/08 02:10:53;;;;;;;13.50;6.53;;;2.40;88.30;;;;;;5081082;28;20047;-58
2021/12/08 02:13:22;;;;;;;14.57;7.90;;;2.40;88.40;;;;;;5069721;28;20036;-58
2021/12/08 02:15:51;;;;;;;15.80;8.07;;;2.40;88.60;;;;;;5069747;28;20024;-59
2021/12/08 02:18:18;;;;;;;11.52;7.25;;;2.40;88.60;;;;;;5069204;28;20029;-58
2021/12/08 02:20:48;;;;;;;16.27;6.82;;;2.40;88.70;;;;;;5069761;28;20025;-58
2021/12/08 02:23:19;;;;;;;16.48;8.02;;;2.40;88.80;;;;;;5069094;28;20028;-57
2021/12/08 02:25:49;;;;;;;12.27;8.00;;;2.50;88.90;;;;;;5069524;28;20099;-56
2021/12/08 02:28:15;;;;;;;;;;;2.40;88.80;;;;;;5053550;28;20039;-58
2021/12/08 02:30:48;;;;;;;11.93;6.95;;;2.50;88.80;;;;;;5069042;28;20007;-58
2021/12/08 02:50:04;;;;;;;14.10;7.45;;;2.30;89.40;;;;;;5073222;28;20047;-60
2021/12/08 02:52:30;;;;;;;16.52;8.85;;;2.40;89.50;;;;;;5070328;28;20032;-60
2021/12/08 02:55:03;;;;;;;14.95;8.60;;;2.30;89.40;;;;;;5072360;28;20082;-60
2021/12/08 02:57:30;;;;;;;12.85;7.90;;;2.30;89.60;;;;;;5071161;28;20033;-60
2021/12/08 02:59:56;;;;;;;14.38;8.20;;;2.30;89.40;;;;;;5072594;28;20068;-57
2021/12/08 03:02:23;;;;;;;14.88;8.50;;;2.30;89.50;;;;;;5072718;28;20521;-59
2021/12/08 03:04:50;;;;;;;19.63;8.45;;;2.20;89.60;;;;;;5055285;28;20119;-60
2021/12/08 03:07:17;;;;;;;17.63;9.13;;;2.30;89.70;;;;;;5072627;28;20066;-59
2021/12/08 03:09:45;;;;;;;12.15;7.50;;;2.20;89.70;;;;;;5074558;28;20096;-61
2021/12/08 03:12:10;;;;;;;14.68;9.68;;;2.20;89.60;;;;;;5073093;28;20028;-58
2021/12/08 03:14:37;;;;;;;14.40;8.05;;;2.10;89.90;;;;;;5072215;28;20158;-60
2021/12/08 03:17:07;;;;;;;14.20;8.45;;;2.20;89.90;;;;;;5072759;28;20070;-59
2021/12/08 03:19:37;;;;;;;15.32;8.27;;;2.10;90.00;;;;;;5072330;28;20104;-58
2021/12/08 03:22:10;;;;;;;16.83;7.90;;;2.10;90.10;;;;;;5051691;28;20082;-61
2021/12/08 03:24:40;;;;;;;13.00;8.23;;;2.10;90.20;;;;;;5060249;28;20331;-58
2021/12/08 03:27:11;;;;;;;16.30;8.77;;;2.10;90.30;;;;;;5072643;28;20043;-60
2021/12/08 03:32:17;;;;;;;21.42;9.85;;;2.10;90.40;;;;;;5072570;28;20416;-61
2021/12/08 03:34:51;;;;;;;15.23;7.65;;;2.10;90.30;;;;;;5072355;28;20081;-58
2021/12/08 03:37:31;;;;;;;14.85;9.27;;;2.10;90.40;;;;;;5071626;28;20044;-60
2021/12/08 03:40:00;;;;;;;12.68;9.02;;;2.10;90.40;;;;;;5053920;28;20040;-58
2021/12/08 03:42:28;;;;;;;19.63;9.40;;;2.10;90.40;;;;;;5071529;28;20036;-60
2021/12/08 03:44:59;;;;;;;11.55;7.40;;;2.10;90.50;;;;;;5071853;28;20035;-58
2021/12/08 03:47:28;;;;;;;12.45;6.90;;;2.10;90.60;;;;;;5072054;28;20071;-60
2021/12/08 03:50:05;;;;;;;12.82;7.65;;;2.10;90.70;;;;;;5071854;28;20036;-59
2021/12/08 03:52:32;;;;;;;15.88;7.30;;;2.10;90.60;;;;;;5070991;28;20047;-55
2021/12/08 03:54:59;;;;;;;14.10;7.78;;;2.10;90.60;;;;;;5069455;28;20040;-57
2021/12/08 03:57:26;;;;;;;14.68;8.02;;;2.10;90.60;;;;;;5070693;28;20024;-53
2021/12/08 03:59:55;;;;;;;13.35;8.68;;;2.20;90.70;;;;;;5071671;28;20039;-56
2021/12/08 04:02:22;;;;;;;11.20;6.40;;;2.20;90.70;;;;;;5071375;28;20047;-56
2021/12/08 04:04:51;;;;;;;11.43;7.13;;;2.20;90.80;;;;;;5071685;28;20090;-54
2021/12/08 04:07:19;;;;;;;12.50;8.43;;;2.20;90.80;;;;;;5071434;28;20104;-55
2021/12/08 04:09:50;;;;;;;12.07;7.90;;;2.20;90.90;;;;;;5073346;28;20028;-58
2021/12/08 04:12:20;;;;;;;13.82;7.93;;;2.10;90.90;;;;;;5075952;28;20357;-60
2021/12/08 04:15:00;;;;;;;13.50;7.20;;;2.20;91.00;;;;;;5066735;28;20036;-56
2021/12/08 04:17:32;;;;;;;12.85;7.18;;;2.20;91.00;;;;;;5071552;28;20579;-56
2021/12/08 04:20:05;;;;;;;16.20;7.75;;;2.20;91.00;;;;;;5071626;28;20056;-55
2021/12/08 04:22:40;;;;;;;10.55;6.15;;;2.20;90.90;;;;;;5070831;28;20024;-56
2021/12/08 04:25:16;;;;;;;11.98;6.60;;;2.20;91.00;;;;;;5071593;28;20025;-57
2021/12/08 04:27:44;;;;;;;9.57;7.07;;;2.20;91.00;;;;;;5070821;28;20044;-55
2021/12/08 04:30:15;;;;;;;10.52;5.93;;;2.20;91.00;;;;;;5070688;28;20037;-52
2021/12/08 04:32:43;;;;;;;11.43;6.47;;;2.20;90.90;;;;;;5070435;28;20064;-53
2021/12/08 04:35:11;;;;;;;15.55;6.95;;;2.20;90.90;;;;;;5070804;28;20037;-49
2021/12/08 04:37:47;;;;;;;9.05;5.95;;;2.20;90.90;;;;;;5070450;28;20017;-50
2021/12/08 04:40:32;;;;;;;9.88;6.80;;;2.20;90.90;;;;;;5071243;28;20063;-52
2021/12/08 04:45:48;;;;;;;10.38;6.10;;;2.30;90.90;;;;;;5071364;28;20029;-47
2021/12/08 04:53:44;;;;;;;15.10;6.10;;;2.30;90.90;;;;;;5070834;28;20075;-47
2021/12/08 05:04:36;;;;;;;9.25;5.63;;;2.30;90.90;;;;;;5069671;28;20387;-48
2021/12/08 05:09:48;;;;;;;11.05;5.65;;;2.30;90.90;;;;;;5072051;28;20103;-47
2021/12/08 05:12:25;;;;;;;11.68;6.10;;;2.40;90.90;;;;;;5068927;28;20438;-45
2021/12/08 05:15:15;;;;;;;7.43;6.57;;;2.40;90.90;;;;;;5070111;28;20063;-45
2021/12/08 05:17:46;;;;;;;9.23;6.30;;;2.30;91.00;;;;;;5069973;28;20020;-48
2021/12/08 05:20:39;;;;;;;7.97;6.00;;;2.40;91.00;;;;;;5070297;28;20032;-47
2021/12/08 05:23:11;;;;;;;9.38;5.28;;;2.40;91.00;;;;;;5069535;28;20020;-52
2021/12/08 05:25:39;;;;;;;8.73;5.70;;;2.40;91.00;;;;;;5070186;28;20071;-46
2021/12/08 05:28:09;;;;;;;10.60;6.68;;;2.40;91.00;;;;;;5070054;28;20323;-46
2021/12/08 05:30:56;;;;;;;11.52;6.18;;;2.40;91.00;;;;;;5069925;28;20056;-45
2021/12/08 05:33:25;;;;;;;10.48;5.88;;;2.40;90.80;;;;;;5069855;28;20027;-44
2021/12/08 05:35:52;;;;;;;8.77;5.82;;;2.40;90.90;;;;;;5069667;28;20055;-44
2021/12/08 05:38:22;;;;;;;10.63;5.78;;;2.50;91.00;;;;;;5069783;28;20032;-46
2021/12/08 05:40:57;;;;;;;8.38;6.05;;;2.50;91.00;;;;;;5052390;28;20115;-45
2021/12/08 05:43:24;;;;;;;8.38;5.88;;;2.50;91.00;;;;;;5069741;28;20432;-47
2021/12/08 05:45:54;;;;;;;6.75;5.57;;;2.50;91.00;;;;;;5052389;28;20032;-49
2021/12/08 05:48:21;;;;;;;8.05;5.43;;;2.50;91.00;;;;;;5069754;28;20114;-51
2021/12/08 05:51:12;;;;;;;7.45;6.22;;;2.50;91.00;;;;;;5069932;28;20357;-46
2021/12/08 05:53:43;;;;;;;11.93;5.32;;;2.50;91.00;;;;;;5069612;28;20033;-50
2021/12/08 05:56:16;;;;;;;9.23;6.25;;;2.50;91.00;;;;;;5070314;28;20507;-50
2021/12/08 05:58:45;;;;;;;8.77;6.18;;;2.50;91.00;;;;;;5069303;28;20043;-48
2021/12/08 06:01:36;;;;;;;9.20;6.30;;;2.50;91.10;;;;;;5060951;28;20174;-48
2021/12/08 06:04:06;;;;;;;7.70;6.05;;;2.50;91.10;;;;;;5069412;28;20029;-49
2021/12/08 06:06:34;;;;;;;10.07;6.05;;;2.60;91.20;;;;;;5049675;28;20791;-48
2021/12/08 06:09:05;;;;;;;9.90;6.72;;;2.50;91.20;;;;;;5062742;28;20101;-47
2021/12/08 06:11:35;;;;;;;7.70;5.93;;;2.60;91.30;;;;;;5086563;28;20020;-47
2021/12/08 06:14:05;;;;;;;9.27;6.05;;;2.60;91.30;;;;;;5072396;28;20025;-48
2021/12/08 06:16:31;;;;;;;;;;;2.60;91.20;;;;;;5070757;28;20020;-49
2021/12/08 06:18:58;;;;;;;9.82;6.88;;;2.60;91.20;;;;;;5073247;28;19916;-47
2021/12/08 06:21:27;;;;;;;11.25;7.00;;;2.70;91.20;;;;;;5073730;28;20035;-46
2021/12/08 06:23:55;;;;;;;7.75;5.90;;;2.70;91.20;;;;;;5070983;28;20025;-46
2021/12/08 06:26:25;;;;;;;7.97;5.75;;;2.70;91.20;;;;;;5073611;28;20449;-46
2021/12/08 06:28:52;;;;;;;11.60;6.90;;;2.70;91.10;;;;;;5073135;28;20040;-47
2021/12/08 06:31:21;;;;;;;13.95;7.05;;;2.80;91.20;;;;;;5073094;28;20028;-46
2021/12/08 06:33:48;;;;;;;9.35;4.97;;;2.80;91.20;;;;;;5073437;28;20025;-48
2021/12/08 06:36:21;;;;;;;10.90;6.53;;;2.80;91.10;;;;;;5073273;28;20028;-46
2021/12/08 06:38:48;;;;;;;12.65;6.57;;;2.80;91.20;;;;;;5073361;28;20353;-47
2021/12/08 06:41:33;;;;;;;8.98;6.50;;;2.80;91.20;;;;;;5073313;28;20045;-46
2021/12/08 06:44:07;;;;;;;11.70;5.53;;;2.90;91.20;;;;;;5072359;28;20037;-47
2021/12/08 06:46:34;;;;;;;11.57;5.50;;;2.90;91.20;;;;;;5072840;28;20036;-49
2021/12/08 06:49:05;;;;;;;7.63;6.55;;;2.90;91.10;;;;;;5063277;28;20039;-46
2021/12/08 06:51:42;;;;;;;8.50;6.40;;;2.90;91.10;;;;;;5056073;28;20048;-46
2021/12/08 06:54:18;;;;;;;9.10;5.40;;;2.90;91.00;;;;;;5066512;28;20124;-45
2021/12/08 06:56:53;;;;;;;7.35;4.80;;;2.90;91.00;;;;;;5073013;28;20361;-47
2021/12/08 06:59:25;;;;;;;9.30;6.38;;;3.00;91.00;;;;;;5072333;28;20032;-46
2021/12/08 07:02:05;;;;;;;9.93;5.13;;;2.90;91.00;;;;;;5072105;28;20096;-48
2021/12/08 07:05:11;;;;;;;8.25;5.60;;;3.00;91.00;;;;;;5072630;28;20353;-44
2021/12/08 07:07:41;;;;;;;9.63;5.82;;;3.00;91.00;;;;;;5053065;28;20041;-45
2021/12/08 07:10:19;;;;;;;11.02;5.85;;;3.00;91.00;;;;;;5077091;28;20012;-45
2021/12/08 07:13:01;;;;;;;9.77;5.45;;;3.00;90.90;;;;;;5089196;28;20101;-46
2021/12/08 07:15:34;;;;;;;8.30;6.30;;;3.10;90.90;;;;;;5072036;28;20028;-46
2021/12/08 07:18:07;;;;;;;7.35;5.88;;;3.00;90.80;;;;;;5072731;28;20036;-45
2021/12/08 07:20:45;;;;;;;9.00;5.55;;;3.00;90.70;;;;;;5071957;28;20039;-47
2021/12/08 07:23:28;;;;;;;7.85;5.63;;;3.00;90.70;;;;;;5071920;28;20137;-47
2021/12/08 07:25:57;;;;;;;8.73;5.68;;;3.00;90.60;;;;;;5072540;28;20040;-45
2021/12/08 07:28:27;;;;;;;6.53;4.90;;;3.00;90.60;;;;;;5071782;28;20021;-48
2021/12/08 07:31:00;;;;;;;11.25;5.80;;;3.00;90.70;;;;;;5071949;28;20059;-44
2021/12/08 07:33:27;;;;;;;7.78;5.78;;;3.00;90.80;;;;;;5072070;28;20389;-44
2021/12/08 07:35:59;;;;;;;9.65;5.35;;;3.10;90.80;;;;;;5072078;28;20442;-45
2021/12/08 07:38:28;;;;;;;8.27;5.63;;;3.10;90.80;;;;;;5065629;28;20426;-45
2021/12/08 07:41:02;;;;;;;;;;;3.20;90.70;;;;;;5055194;28;20028;-44
2021/12/08 07:43:29;;;;;;;13.05;5.55;;;3.20;90.70;;;;;;5071237;28;20295;-45
2021/12/08 07:46:05;;;;;;;11.57;5.20;;;3.20;90.60;;;;;;5072041;28;20039;-44
2021/12/08 07:48:40;;;;;;;9.85;5.00;;;3.20;90.50;;;;;;5063863;28;20060;-44
2021/12/08 07:51:13;;;;;;;9.82;5.22;;;3.30;90.50;;;;;;5052318;28;20028;-43
2021/12/08 07:53:41;;;;;;;8.38;4.85;;;3.30;90.40;;;;;;5063274;28;20052;-46
2021/12/08 07:56:11;;;;;;;6.55;4.70;;;3.40;90.40;;;;;;5054281;28;20036;-43
2021/12/08 07:58:41;;;;;;;;;;;3.40;90.30;;;;;;5072232;28;20024;-44
2021/12/08 08:01:15;;;;;;;8.40;4.97;;;3.40;90.30;;;;;;5068866;28;20057;-48
2021/12/08 08:03:42;;;;;;;8.75;4.97;;;3.40;90.30;;;;;;5070560;28;20086;-45
2021/12/08 08:06:13;;;;;;;8.43;4.97;;;3.40;90.20;;;;;;5071421;28;20517;-45
2021/12/08 08:08:40;;;;;;;8.93;4.80;;;3.40;90.10;;;;;;5071439;28;20028;-43
2021/12/08 08:11:15;;;;;;;8.30;3.80;;;3.50;90.10;;;;;;5084837;28;20047;-46
2021/12/08 08:13:42;;;;;;;8.93;4.65;;;3.50;90.00;;;;;;5080232;28;20071;-47
2021/12/08 08:16:16;;;;;;;6.95;4.45;;;3.50;89.90;;;;;;5071612;28;20040;-44
2021/12/08 08:18:55;;;;;;;8.25;4.80;;;3.60;89.80;;;;;;5070484;28;20021;-45
2021/12/08 08:21:27;;;;;;;8.57;4.57;;;3.60;89.70;;;;;;5071342;28;20017;-43
2021/12/08 08:23:53;;;;;;;9.50;4.75;;;3.60;89.70;;;;;;5070847;28;20433;-44
2021/12/08 08:26:23;;;;;;;7.00;3.88;;;3.70;89.60;;;;;;5071002;28;20106;-47
2021/12/08 08:28:52;;;;;;;5.50;4.32;;;3.70;89.60;;;;;;5063061;28;20094;-43
2021/12/08 08:31:21;;;;;;;7.32;4.15;;;3.70;89.50;;;;;;5070471;28;20071;-43
2021/12/08 08:33:49;;;;;;;;;;;3.80;89.40;;;;;;5033951;28;20080;-45
2021/12/08 08:36:21;;;;;;;6.03;3.60;;;3.70;89.40;;;;;;5053066;28;20308;-42
2021/12/08 08:39:08;;;;;;;9.50;4.03;;;3.80;89.40;;;;;;5063904;28;20056;-43
2021/12/08 08:41:41;;;;;;;5.28;3.80;;;3.80;89.50;;;;;;5070684;28;20025;-43
2021/12/08 08:44:13;;;;;;;6.22;4.18;;;3.90;89.40;;;;;;5070598;28;20100;-45
2021/12/08 08:46:45;;;;;;;10.57;5.30;;;3.90;89.60;;;;;;5070636;28;20187;-44
2021/12/08 08:49:17;;;;;;;6.45;3.70;;;3.90;89.40;;;;;;5069428;28;20029;-43
2021/12/08 08:52:14;;;;;;;5.05;3.45;;;3.90;89.20;;;;;;5070324;28;20408;-44
2021/12/08 08:54:45;;;;;;;5.68;3.63;;;3.90;89.10;;;;;;5070573;28;20028;-42
2021/12/08 08:57:17;;;;;;;4.40;3.28;;;4.00;89.00;;;;;;5070255;28;20404;-45
2021/12/08 08:59:48;;;;;;;5.93;3.72;;;4.00;88.90;;;;;;5064160;28;20028;-43
2021/12/08 09:02:22;;;;;;;5.32;3.53;;;4.10;88.70;;;;;;5060078;28;20043;-43
2021/12/08 09:04:54;;;;;;;5.38;3.78;;;4.10;88.80;;;;;;5070117;28;20442;-46
2021/12/08 09:07:26;;;;;;;4.55;3.28;;;4.10;88.60;;;;;;5070148;28;20068;-42
2021/12/08 09:10:00;;;;;;;11.45;4.15;;;4.10;88.70;;;;;;5067711;28;20090;-45
2021/12/08 09:12:38;;;;;;;6.35;3.92;;;4.20;88.60;;;;;;5089212;28;20028;-43
2021/12/08 09:15:36;;;;;;;5.55;3.50;;;4.20;88.50;;;;;;5053163;28;20382;-44
2021/12/08 09:18:20;;;;;;;6.60;3.05;;;4.20;88.50;;;;;;5070700;28;20394;-45
2021/12/08 09:20:56;;;;;;;5.20;3.53;;;4.10;88.60;;;;;;5069625;28;20063;-44
2021/12/08 09:23:50;;;;;;;7.65;4.10;;;4.20;88.60;;;;;;5057866;28;20044;-43
2021/12/08 09:26:21;;;;;;;6.35;3.90;;;4.10;88.40;;;;;;5069769;28;20048;-42
2021/12/08 09:28:58;;;;;;;8.02;4.32;;;4.20;88.50;;;;;;5069857;28;20055;-45
2021/12/08 09:31:34;;;;;;;5.97;3.55;;;4.20;88.60;;;;;;5069895;28;20142;-46
2021/12/08 09:34:10;;;;;;;9.05;3.70;;;4.20;88.50;;;;;;5069729;28;20074;-43
2021/12/08 09:36:42;;;;;;;7.05;3.58;;;4.20;88.60;;;;;;5069687;28;20086;-45
2021/12/08 09:39:28;;;;;;;5.60;3.25;;;4.30;88.40;;;;;;5069118;28;20514;-43
2021/12/08 09:42:05;;;;;;;7.25;3.58;;;4.40;88.40;;;;;;5069521;28;20111;-45
2021/12/08 09:44:39;;;;;;;5.47;3.50;;;4.40;88.30;;;;;;5069716;28;20037;-45
2021/12/08 09:47:09;;;;;;;7.88;3.30;;;4.50;88.30;;;;;;5069740;28;20016;-45
2021/12/08 09:49:36;;;;;;;4.55;3.25;;;4.60;88.00;;;;;;5069262;28;20097;-47
2021/12/08 09:52:08;;;;;;;6.22;3.40;;;4.60;87.90;;;;;;5069948;28;20048;-43
2021/12/08 09:54:38;;;;;;;6.45;3.35;;;4.60;88.00;;;;;;5069727;28;20440;-47
2021/12/08 09:57:11;;;;;;;5.32;2.78;;;4.60;87.80;;;;;;5069522;28;20158;-43
2021/12/08 09:59:46;;;;;;;4.88;2.83;;;4.70;87.80;;;;;;5069877;28;20032;-46
2021/12/08 10:02:35;;;;;;;6.35;3.45;;;4.60;87.90;;;;;;5068799;28;20029;-47
2021/12/08 10:05:32;;;;;;;5.65;3.00;;;4.60;88.00;;;;;;5061443;28;20029;-44
2021/12/08 10:08:00;;;;;;;5.00;2.88;;;4.60;87.80;;;;;;5047241;28;20057;-45
2021/12/08 10:10:28;;;;;;;5.80;3.70;;;4.60;88.00;;;;;;5042831;28;20071;-42
2021/12/08 10:12:59;;;;;;;5.80;3.00;;;4.60;88.10;;;;;;5046603;28;20045;-42
2021/12/08 10:15:26;;;;;;;6.45;3.72;;;4.70;88.00;;;;;;5014902;28;20041;-43
2021/12/08 10:17:56;;;;;;;4.68;3.30;;;4.60;87.90;;;;;;5043003;28;20140;-46
2021/12/08 10:20:42;;;;;;;4.95;3.42;;;4.60;88.00;;;;;;5035115;28;20029;-45
2021/12/08 10:23:23;;;;;;;9.35;4.13;;;4.70;88.00;;;;;;5016964;28;20423;-44
2021/12/08 10:26:11;;;;;;;5.43;3.38;;;4.70;88.10;;;;;;5030458;28;20033;-46
2021/12/08 10:28:59;;;;;;;6.90;3.85;;;4.90;87.90;;;;;;5036482;28;20394;-48
2021/12/08 10:31:39;;;;;;;6.47;3.20;;;5.00;87.80;;;;;;5027919;28;20566;-44
2021/12/08 10:36:58;;;;;;;6.03;2.95;;;5.20;87.40;;;;;;5041271;28;20028;-43
2021/12/08 10:39:46;;;;;;;5.45;3.03;;;5.20;87.10;;;;;;5062418;28;20133;-46
2021/12/08 10:42:29;;;;;;;4.70;3.05;;;5.30;86.90;;;;;;5068970;28;20016;-45
2021/12/08 10:45:09;;;;;;;6.95;3.55;;;5.30;87.00;;;;;;5049594;28;20370;-44
2021/12/08 10:47:41;;;;;;;6.25;4.05;;;5.30;87.10;;;;;;5067588;28;20427;-46
2021/12/08 10:56:24;;;;;;;5.47;3.22;;;5.40;86.90;;;;;;5069103;28;20480;-46
2021/12/08 10:58:57;;;;;;;5.47;3.70;;;5.30;86.50;;;;;;5068390;28;20075;-43
2021/12/08 11:01:25;;;;;;;7.43;3.28;;;5.30;86.70;;;;;;5068131;28;20294;-46
2021/12/08 11:04:04;;;;;;;7.90;3.78;;;5.30;86.90;;;;;;5071313;28;20115;-49
2021/12/08 11:06:34;;;;;;;6.15;2.78;;;5.40;86.90;;;;;;5072444;28;20111;-44
2021/12/08 11:09:05;;;;;;;6.97;3.40;;;5.40;86.80;;;;;;5059464;28;20028;-45
2021/12/08 11:11:41;;;;;;;5.15;3.22;;;5.40;86.80;;;;;;5074048;28;20517;-46
2021/12/08 11:14:08;;;;;;;4.88;2.97;;;5.50;86.70;;;;;;5074560;28;20370;-46
2021/12/08 11:16:40;;;;;;;5.00;2.67;;;5.50;86.70;;;;;;5071826;28;20032;-49
2021/12/08 11:19:24;;;;;;;5.32;2.70;;;5.50;86.80;;;;;;5071515;28;20047;-44
2021/12/08 11:21:56;;;;;;;4.47;2.60;;;5.50;86.90;;;;;;5071943;28;20031;-45
2021/12/08 11:24:34;;;;;;;6.35;2.88;;;5.50;86.80;;;;;;5071002;28;20080;-47
2021/12/08 11:27:09;;;;;;;6.35;3.05;;;5.50;86.90;;;;;;5071394;28;20442;-44
2021/12/08 11:29:40;;;;;;;7.68;3.50;;;5.50;87.10;;;;;;5070442;28;20056;-45
2021/12/08 11:32:27;;;;;;;7.63;2.90;;;5.60;86.90;;;;;;5069520;28;20089;-46
2021/12/08 11:34:55;;;;;;;7.90;3.20;;;5.70;86.40;;;;;;5056537;28;20024;-46
2021/12/08 11:37:32;;;;;;;9.00;3.33;;;5.80;86.50;;;;;;5071499;28;20446;-46
2021/12/08 11:40:01;;;;;;;6.15;3.08;;;5.80;86.10;;;;;;5053693;28;20396;-45
2021/12/08 11:42:35;;;;;;;7.00;3.57;;;5.70;86.20;;;;;;5071500;28;20067;-44
2021/12/08 11:45:18;;;;;;;5.90;4.22;;;5.80;86.00;;;;;;5071979;28;20024;-45
2021/12/08 11:47:44;;;;;;;6.45;3.47;;;5.70;86.20;;;;;;5071003;28;20041;-48
2021/12/08 11:50:32;;;;;;;8.40;3.90;;;5.70;86.10;;;;;;5053343;28;20119;-44
2021/12/08 11:53:02;;;;;;;6.35;3.35;;;5.70;86.10;;;;;;5070779;28;20045;-45
2021/12/08 11:55:29;;;;;;;10.60;4.25;;;5.70;86.10;;;;;;5070958;28;20021;-47
2021/12/08 11:57:58;;;;;;;6.82;4.07;;;5.70;86.30;;;;;;5057724;28;20033;-47
2021/12/08 12:00:46;;;;;;;6.07;3.50;;;5.70;86.10;;;;;;5071296;28;20120;-46
2021/12/08 12:03:14;;;;;;;7.20;3.60;;;5.80;86.20;;;;;;5058788;28;20028;-44
2021/12/08 12:05:47;;;;;;;9.07;4.73;;;5.80;86.00;;;;;;5069635;28;20028;-49
2021/12/08 12:08:18;;;;;;;5.20;3.75;;;5.80;86.00;;;;;;5070934;28;20119;-50
2021/12/08 12:10:54;;;;;;;8.55;3.80;;;5.80;85.90;;;;;;5059648;28;20032;-44
2021/12/08 12:13:21;;;;;;;7.05;3.70;;;5.80;85.70;;;;;;5062467;28;20082;-45
2021/12/08 12:15:49;;;;;;;6.05;3.60;;;5.80;85.40;;;;;;5070462;28;20025;-46
2021/12/08 12:18:18;;;;;;;8.68;3.95;;;5.80;85.50;;;;;;5071199;28;20044;-44
2021/12/08 12:20:56;;;;;;;6.32;4.05;;;5.80;85.80;;;;;;5070725;28;20056;-47
2021/12/08 12:23:55;;;;;;;7.97;3.72;;;5.70;85.80;;;;;;5071311;28;20066;-46
2021/12/08 12:27:15;;;;;;;6.57;3.93;;;5.70;85.90;;;;;;5069754;28;20111;-44
2021/12/08 12:29:59;;;;;;;7.80;3.53;;;5.60;86.20;;;;;;4988669;28;20147;-47
2021/12/08 12:32:46;;;;;;;7.28;3.85;;;5.60;86.10;;;;;;5020561;28;20025;-48
2021/12/08 12:35:32;;;;;;;7.95;3.88;;;5.60;86.30;;;;;;5011342;28;20033;-47
2021/12/08 12:38:05;;;;;;;8.55;4.57;;;5.60;86.20;;;;;;5024236;28;20021;-48
2021/12/08 12:40:46;;;;;;;9.98;4.43;;;5.70;86.30;;;;;;5026380;28;20034;-44
2021/12/08 12:43:37;;;;;;;7.38;4.07;;;5.70;86.20;;;;;;5026347;28;20021;-47
2021/12/08 12:46:23;;;;;;;8.85;4.15;;;5.70;86.20;;;;;;5030040;28;20040;-46
2021/12/08 12:48:52;;;;;;;9.48;3.45;;;5.70;86.40;;;;;;5030648;28;20086;-44
2021/12/08 12:51:23;;;;;;;8.88;3.75;;;5.60;86.40;;;;;;5030100;28;20083;-47
2021/12/08 12:53:56;;;;;;;8.63;3.92;;;5.60;86.40;;;;;;5030724;28;20160;-45
2021/12/08 12:56:34;;;;;;;8.25;3.75;;;5.60;86.30;;;;;;5029545;28;20171;-47
2021/12/08 12:59:23;;;;;;;7.85;4.25;;;5.60;86.30;;;;;;5029560;28;20026;-46
2021/12/08 13:02:09;;;;;;;9.43;4.25;;;5.70;86.10;;;;;;5029731;28;20032;-45
2021/12/08 13:05:00;;;;;;;6.90;4.28;;;5.70;86.00;;;;;;5030088;28;20021;-47
2021/12/08 13:07:30;;;;;;;7.53;3.70;;;5.70;85.90;;;;;;5030305;28;20047;-46
2021/12/08 13:10:11;;;;;;;8.70;4.82;;;5.70;86.00;;;;;;5033944;28;20068;-45
2021/12/08 13:13:09;;;;;;;8.07;4.38;;;5.70;86.00;;;;;;5047149;28;20091;-47
2021/12/08 13:15:38;;;;;;;10.43;4.38;;;5.70;86.20;;;;;;5030268;28;20029;-44
2021/12/08 13:18:14;;;;;;;7.40;4.20;;;5.70;86.10;;;;;;5030157;28;20363;-44
2021/12/08 13:20:59;;;;;;;8.35;4.82;;;5.70;86.20;;;;;;5029101;28;20454;-47
2021/12/08 13:23:30;;;;;;;8.57;5.32;;;5.70;86.10;;;;;;5030605;28;20029;-45
2021/12/08 13:26:19;;;;;;;10.25;5.68;;;5.60;86.20;;;;;;5045386;28;20513;-48
2021/12/08 13:31:47;;;;;;;7.70;4.82;;;5.70;86.10;;;;;;5063074;28;20740;-47
2021/12/08 13:34:17;;;;;;;9.20;4.75;;;5.70;86.00;;;;;;5065446;28;20047;-45
2021/12/08 13:37:15;;;;;;;7.35;5.13;;;5.70;86.00;;;;;;5060661;28;20033;-46
2021/12/08 13:39:47;;;;;;;9.00;5.30;;;5.70;86.10;;;;;;5066397;28;20443;-48
2021/12/08 13:42:27;;;;;;;9.63;5.10;;;5.70;86.10;;;;;;5070011;28;20037;-48
2021/12/08 13:44:56;;;;;;;6.78;4.55;;;5.70;86.00;;;;;;5030186;28;20037;-47
2021/12/08 13:47:33;;;;;;;10.03;5.03;;;5.70;85.90;;;;;;5030256;28;20432;-45
2021/12/08 13:50:11;;;;;;;8.32;5.65;;;5.70;85.90;;;;;;5059275;28;20115;-47
2021/12/08 13:52:44;;;;;;;8.20;4.93;;;5.70;86.00;;;;;;5069920;28;20024;-46
2021/12/08 13:55:32;;;;;;;11.15;4.60;;;5.70;86.00;;;;;;5068191;28;20027;-44
2021/12/08 13:58:07;;;;;;;7.47;4.80;;;5.70;85.90;;;;;;5053878;28;20037;-50
2021/12/08 14:00:59;;;;;;;15.07;5.00;;;5.70;85.80;;;;;;5065341;28;20465;-45
2021/12/08 14:03:43;;;;;;;9.40;5.10;;;5.70;86.00;;;;;;5035662;28;20428;-47
2021/12/08 14:06:11;;;;;;;6.80;4.72;;;5.70;85.90;;;;;;5048778;28;20071;-50
2021/12/08 14:08:42;;;;;;;7.95;4.60;;;5.80;85.80;;;;;;5050664;28;20040;-45
2021/12/08 14:11:19;;;;;;;9.13;5.05;;;5.70;85.70;;;;;;5067811;28;20055;-50
2021/12/08 14:13:50;;;;;;;10.07;4.70;;;5.70;85.60;;;;;;5068885;28;20024;-50
2021/12/08 14:16:23;;;;;;;8.57;4.95;;;5.70;85.60;;;;;;5069673;28;20412;-44
2021/12/08 14:18:54;;;;;;;9.07;4.68;;;5.70;85.50;;;;;;5058305;28;20085;-44
2021/12/08 14:21:40;;;;;;;10.07;4.78;;;5.70;85.40;;;;;;5056038;28;20089;-46